Terminal Aerodrome Forecast
Issued by NWS Goodland, KS

Home | Current Version | Previous Version | Text Only | Print | Product List | Glossary On
Versions: 1 2 3 4 5 6 7 8 9 10 11 12 13 14 15 16 17 18
255
FTUS43 KGLD 091739
TAFGLD
TAF
KGLD 091739Z 0918/1018 18016G24KT P6SM SCT200
     FM092100 17007KT P6SM SCT150
     FM100200 VRB05KT P6SM BKN150
     FM100600 18007KT P6SM SCT030
     FM101000 17008KT 5SM BR BKN020
     FM101600 19008KT P6SM SCT020=

USA.gov is the U.S. government's official web portal to all federal, state and local government web resources and services.